Candy Machine — WDB5898 — position and weather

sailwx.info

Track history (hours):
 
Tides and Currents Weather Stations Pressure Air Temp Water Temp Dewpoint Dewpoint Depression Visibility Wind Speed Wind Dir Waves Ship Positions

Candy Machine

Owner: CANDY MACHINE LLC, MORGAN CITY, LA. More information available from US FCC via Universal Licensing System and Coast Guard Vessel Documentation Center.

Last reported at 2018-May-24 20:41 UTC. Time now 2018-May-28 01:16 UTC.
Position N 29°40' W 092°15'.

Length 40 m; draft 2 m.

Type: Passenger vessel. MMSI: 366914770.

Date/timePositionNaut miles runAvg speedWind from/ knotsBaromVisibWave heightAir tempDewpointWater temp
2018-May-24 20:41N 29°40' W 092°15'212.8
2018-May-24 20:30N 29°42' W 092°15'611.6
2018-May-24 20:00N 29°46' W 092°11'1 1.5
2018-May-24 19:30N 29°47' W 092°11'0 0.0
2018-May-24 19:00N 29°47' W 092°11'0 0.0
2018-May-24 18:30N 29°47' W 092°11'0 0.0
2018-May-24 18:00N 29°47' W 092°11'0 0.0
2018-May-24 17:30N 29°47' W 092°11'0 0.0
2018-May-24 17:00N 29°47' W 092°11'0 0.0
2018-May-24 16:30N 29°47' W 092°11'0 0.0
2018-May-24 16:00N 29°47' W 092°11'0 0.0
2018-May-24 15:30N 29°47' W 092°11'0 0.0
2018-May-24 08:29N 29°47' W 092°11'0 0.0
2018-May-24 08:00N 29°47' W 092°11'0 0.0
2018-May-24 07:30N 29°47' W 092°11'0 0.0
2018-May-24 07:00N 29°47' W 092°11'0 0.0
2018-May-24 06:30N 29°47' W 092°11'0 0.0
2018-May-24 06:00N 29°47' W 092°11'0 0.0
2018-May-24 05:30N 29°47' W 092°11'0 0.0
2018-May-24 05:00N 29°47' W 092°11'0 0.0
2018-May-24 04:31N 29°47' W 092°11'0 0.0
2018-May-24 04:00N 29°47' W 092°11'0 0.1
2018-May-24 03:30N 29°47' W 092°11'0 0.0
2018-May-24 03:00N 29°47' W 092°11'0 0.0
2018-May-24 02:30N 29°47' W 092°11'0 0.1
2018-May-24 02:00N 29°47' W 092°11'510.3
2018-May-24 01:30N 29°43' W 092°15'5 0.2
2018-May-22 17:24N 29°46' W 092°11'  
2018-May-17 03:51N 29°47' W 092°11'0 0.0
2018-May-17 02:20N 29°47' W 092°11'611.5
2018-May-17 01:48N 29°42' W 092°15'517.8
2018-May-17 01:30N 29°37' W 092°17'4 7.2
2018-May-17 00:57N 29°33' W 092°18'614.0
2018-May-17 00:30N 29°27' W 092°16'917.9
2018-May-16 23:59N 29°22' W 092°07'816.4
2018-May-16 23:30N 29°17' W 092°00'816.3
2018-May-16 23:00N 29°12' W 091°52'  
Track history (hours):
 
Tides and Currents Weather Stations Pressure Air Temp Water Temp Dewpoint Dewpoint Depression Visibility Wind Speed Wind Dir Waves Ship Positions

Candy Machine

Owner: CANDY MACHINE LLC, MORGAN CITY, LA. More information available from US FCC via Universal Licensing System and Coast Guard Vessel Documentation Center.

Last reported at 2018-May-24 20:41 UTC. Time now 2018-May-28 01:16 UTC.
Position N 29°40' W 092°15'.

Length 40 m; draft 2 m.

Type: Passenger vessel. MMSI: 366914770.

Date/timePositionNaut miles runAvg speedWind from/ knotsBaromVisibWave heightAir tempDewpointWater temp
2018-May-24 20:41N 29°40' W 092°15'212.8
2018-May-24 20:30N 29°42' W 092°15'611.6
2018-May-24 20:00N 29°46' W 092°11'1 1.5
2018-May-24 19:30N 29°47' W 092°11'0 0.0
2018-May-24 19:00N 29°47' W 092°11'0 0.0
2018-May-24 18:30N 29°47' W 092°11'0 0.0
2018-May-24 18:00N 29°47' W 092°11'0 0.0
2018-May-24 17:30N 29°47' W 092°11'0 0.0
2018-May-24 17:00N 29°47' W 092°11'0 0.0
2018-May-24 16:30N 29°47' W 092°11'0 0.0
2018-May-24 16:00N 29°47' W 092°11'0 0.0
2018-May-24 15:30N 29°47' W 092°11'0 0.0
2018-May-24 08:29N 29°47' W 092°11'0 0.0
2018-May-24 08:00N 29°47' W 092°11'0 0.0
2018-May-24 07:30N 29°47' W 092°11'0 0.0
2018-May-24 07:00N 29°47' W 092°11'0 0.0
2018-May-24 06:30N 29°47' W 092°11'0 0.0
2018-May-24 06:00N 29°47' W 092°11'0 0.0
2018-May-24 05:30N 29°47' W 092°11'0 0.0
2018-May-24 05:00N 29°47' W 092°11'0 0.0
2018-May-24 04:31N 29°47' W 092°11'0 0.0
2018-May-24 04:00N 29°47' W 092°11'0 0.1
2018-May-24 03:30N 29°47' W 092°11'0 0.0
2018-May-24 03:00N 29°47' W 092°11'0 0.0
2018-May-24 02:30N 29°47' W 092°11'0 0.1
2018-May-24 02:00N 29°47' W 092°11'510.3
2018-May-24 01:30N 29°43' W 092°15'5 0.2
2018-May-22 17:24N 29°46' W 092°11'  
2018-May-17 03:51N 29°47' W 092°11'0 0.0
2018-May-17 02:20N 29°47' W 092°11'611.5
2018-May-17 01:48N 29°42' W 092°15'517.8
2018-May-17 01:30N 29°37' W 092°17'4 7.2
2018-May-17 00:57N 29°33' W 092°18'614.0
2018-May-17 00:30N 29°27' W 092°16'917.9
2018-May-16 23:59N 29°22' W 092°07'816.4
2018-May-16 23:30N 29°17' W 092°00'816.3
2018-May-16 23:00N 29°12' W 091°52'  

Dump ship's entire track history